Time;durP1;ratioP1;P1;durP2;ratioP2;P2;SDS_P1;SDS_P2;PMS_P1;PMS_P2;Temp;Humidity;BMP_temperature;BMP_pressure;BME280_temperature;BME280_humidity;BME280_pressure;Samples;Min_cycle;Max_cycle;Signal;HPM_P1;HPM_P2
2022/10/23 18:44:16;;;;;;;;;;;16.50;99.90;;;14.72;88.74;100458.69;10890209;22;20041;-84
2022/10/23 18:49:19;;;;;;;;;;;16.50;99.90;;;14.71;89.30;100462.38;10381792;28;20033;-83
2022/10/23 18:54:22;;;;;;;;;;;16.50;99.90;;;14.71;89.63;100465.06;10395639;28;20315;-84
2022/10/23 18:59:25;;;;;;;;;;;16.50;99.90;;;14.72;89.46;100469.38;10368285;28;20291;-84
2022/10/23 19:04:27;;;;;;;;;;;16.50;99.90;;;14.70;89.44;100471.44;10383689;28;19940;-84
2022/10/23 19:09:35;;;;;;;;;;;16.50;99.90;;;14.72;89.70;100465.88;10385281;28;19980;-84
2022/10/23 19:14:39;;;;;;;;;;;16.50;99.90;;;14.72;89.89;100473.91;10377897;28;19933;-84
2022/10/23 19:19:45;;;;;;;;;;;16.50;99.90;;;14.70;89.91;100475.97;10391624;28;19937;-84
2022/10/23 19:24:53;;;;;;;;;;;16.40;99.90;;;14.71;90.12;100493.66;10392711;28;19933;-84
2022/10/23 19:29:59;;;;;;;;;;;16.50;99.90;;;14.75;90.30;100478.88;10376079;28;20051;-83
2022/10/23 19:35:03;;;;;;;;;;;16.50;99.90;;;14.76;90.44;100463.69;10367855;28;20037;-84
2022/10/23 19:40:06;;;;;;;;;;;16.60;99.90;;;14.81;90.54;100455.88;10381615;28;19937;-84
2022/10/23 19:45:12;;;;;;;;;;;16.60;99.90;;;14.85;90.71;100449.97;10360280;28;20012;-84
2022/10/23 19:50:15;;;;;;;;;;;16.60;99.90;;;14.91;90.80;100467.13;10368516;28;19960;-84
2022/10/23 19:55:18;;;;;;;;;;;16.60;99.90;;;14.94;90.73;100472.09;10345948;28;19937;-84
2022/10/23 20:00:21;;;;;;;;;;;16.70;99.90;;;14.96;90.62;100468.22;10380850;28;19933;-84
2022/10/23 20:05:24;;;;;;;;;;;16.70;99.90;;;14.95;90.60;100469.22;10369336;28;20357;-84
2022/10/23 20:10:27;;;;;;;;;;;16.80;99.90;;;14.94;90.61;100477.47;10373658;28;19934;-84
2022/10/23 20:15:29;;;;;;;;;;;16.70;99.90;;;14.92;90.61;100474.13;10390534;28;19937;-83
2022/10/23 20:20:32;;;;;;;;;;;16.70;99.90;;;14.89;90.41;100477.19;10358142;28;19933;-83
2022/10/23 20:25:35;;;;;;;;;;;16.70;99.90;;;14.84;90.02;100476.94;10372986;28;19984;-84
2022/10/23 20:30:40;;;;;;;;;;;16.60;99.90;;;14.81;90.08;100478.13;10394295;28;20385;-84
2022/10/23 20:35:43;;;;;;;;;;;16.60;99.90;;;14.73;90.06;100479.06;10381236;28;19940;-83
2022/10/23 20:40:46;;;;;;;;;;;16.50;99.90;;;14.70;90.19;100462.56;10399856;28;19940;-84
2022/10/23 20:45:49;;;;;;;;;;;16.50;99.90;;;14.65;90.12;100452.44;10393547;28;19933;-84
2022/10/23 20:50:52;;;;;;;;;;;16.40;99.90;;;14.55;90.41;100443.88;10386447;28;20388;-84
2022/10/23 20:55:55;;;;;;;;;;;16.30;99.90;;;14.50;90.75;100437.44;10382488;28;19940;-84
2022/10/23 21:01:07;;;;;;;;;;;16.30;99.90;;;14.37;90.69;100433.53;10362867;28;19933;-84
2022/10/23 21:06:12;;;;;;;;;;;16.20;99.90;;;14.27;90.52;100437.53;10347144;28;19940;-84
2022/10/23 21:11:16;;;;;;;;;;;16.00;99.90;;;14.17;90.76;100429.81;10386375;28;19963;-84
2022/10/23 21:16:21;;;;;;;;;;;15.90;99.90;;;14.12;91.17;100434.88;10357896;28;20381;-84
2022/10/23 21:21:31;;;;;;;;;;;15.80;99.90;;;14.06;91.57;100428.41;10399061;28;19941;-84
2022/10/23 21:26:34;;;;;;;;;;;15.80;99.90;;;14.02;91.62;100429.78;10384178;28;19940;-84
2022/10/23 21:31:38;;;;;;;;;;;15.80;99.90;;;14.02;91.91;100428.97;10375583;28;19933;-84
2022/10/23 21:36:44;;;;;;;;;;;15.80;99.90;;;14.03;92.11;100427.94;10400333;28;19983;-84
2022/10/23 21:42:07;;;;;;;;;;;15.80;99.90;;;14.03;92.26;100438.63;10402631;28;19933;-84
2022/10/23 21:47:10;;;;;;;;;;;15.80;99.90;;;14.03;92.42;100433.28;10352607;28;20040;-84
2022/10/23 21:52:13;;;;;;;;;;;15.80;99.90;;;14.08;92.60;100444.25;10379041;28;19941;-84
2022/10/23 21:57:20;;;;;;;;;;;15.80;99.90;;;14.09;92.88;100432.56;10374037;28;19940;-84
2022/10/23 22:02:23;;;;;;;;;;;15.90;99.90;;;14.12;93.26;100427.69;10381073;28;20028;-84
2022/10/23 22:07:26;;;;;;;;;;;15.90;99.90;;;14.13;93.12;100426.66;10365929;28;19934;-84
2022/10/23 22:12:30;;;;;;;;;;;15.90;99.90;;;14.12;93.14;100429.53;10418530;28;20411;-83
2022/10/23 22:17:33;;;;;;;;;;;15.90;99.90;;;14.06;92.71;100423.06;10351247;28;19940;-83
2022/10/23 22:22:36;;;;;;;;;;;15.90;99.90;;;13.96;92.81;100443.88;10397327;28;19985;-84
2022/10/23 22:27:39;;;;;;;;;;;15.80;99.90;;;13.91;93.07;100432.91;10371355;28;19933;-84
2022/10/23 22:32:41;;;;;;;;;;;15.70;99.90;;;13.86;93.38;100432.66;10368356;28;19963;-84
2022/10/23 22:37:45;;;;;;;;;;;15.60;99.90;;;13.81;93.31;100448.41;10379652;28;19933;-84
2022/10/23 22:42:48;;;;;;;;;;;15.60;99.90;;;13.82;93.76;100444.72;10362730;28;19933;-84
2022/10/23 22:47:50;;;;;;;;;;;15.60;99.90;;;13.83;93.94;100435.69;10392297;28;20729;-84
2022/10/23 22:52:54;;;;;;;;;;;15.60;99.90;;;13.87;94.30;100445.84;10402969;28;20058;-84
2022/10/23 22:57:57;;;;;;;;;;;15.70;99.90;;;13.91;94.73;100427.56;10398191;28;19933;-84
2022/10/23 23:02:59;;;;;;;;;;;15.70;99.90;;;13.92;94.84;100426.59;10395180;28;19941;-84
2022/10/23 23:08:02;;;;;;;;;;;15.70;99.90;;;13.93;94.74;100428.25;10400026;28;19984;-85
2022/10/23 23:13:05;;;;;;;;;;;15.70;99.90;;;13.95;94.65;100428.06;10398570;28;19934;-84
2022/10/23 23:18:08;;;;;;;;;;;15.70;99.90;;;13.96;94.90;100416.34;10386459;28;19940;-85
2022/10/23 23:23:12;;;;;;;;;;;15.80;99.90;;;13.97;94.82;100420.66;10374836;28;19934;-84
2022/10/23 23:28:18;;;;;;;;;;;15.80;99.90;;;13.97;95.01;100418.81;10353788;28;19942;-84
2022/10/23 23:33:22;;;;;;;;;;;15.80;99.90;;;13.98;95.11;100417.84;10396472;28;19953;-84
2022/10/23 23:38:26;;;;;;;;;;;15.80;99.90;;;13.99;95.17;100416.00;10395564;28;20405;-84
2022/10/23 23:43:29;;;;;;;;;;;15.80;99.90;;;14.01;95.29;100404.09;10347249;28;19934;-84
2022/10/23 23:48:32;;;;;;;;;;;15.90;99.90;;;14.04;95.39;100410.94;10361262;28;19933;-84
2022/10/23 23:53:35;;;;;;;;;;;15.90;99.90;;;14.08;95.61;100406.84;10403649;28;19984;-84
2022/10/23 23:58:38;;;;;;;;;;;15.90;99.90;;;14.09;95.53;100413.84;10389238;28;19934;-84
